Aviation Digital Data Service (ADDS)

Output produced by METARs form (0655 UTC 23 May 2017)
found at http://aviationweather.gov/adds/metars/
 
KGSO 230528Z 2306/2406 14008KT P6SM -RA BKN008 OVC020 
     TEMPO 2306/2308 3SM SHRA BR SCT009 OVC020 
     FM230800 VRB03KT 6SM BR VCSH OVC012 
     TEMPO 2308/2312 2SM +SHRA OVC008 
     FM231200 05007KT 6SM -SHRA BR OVC008 
     FM231700 04006KT 3SM -SHRA BKN005 OVC010 
     TEMPO 2319/2321 6SM BR SCT005 OVC010